createdAt,value
2023-08-21T00:00:42.802Z,71.83
2023-08-21T00:03:35.231Z,71.05
2023-08-21T00:06:07.689Z,70.88
2023-08-21T00:08:39.913Z,70.46
2023-08-21T00:11:12.156Z,70.37
2023-08-21T00:13:45.843Z,71.11
2023-08-21T00:16:18.594Z,70.49
2023-08-21T00:18:50.816Z,69.96
2023-08-21T00:21:23.081Z,69.47
2023-08-21T00:23:55.530Z,69.70
2023-08-21T00:26:28.186Z,69.72
2023-08-21T00:29:00.831Z,71.00
2023-08-21T00:31:33.655Z,71.39
2023-08-21T00:34:05.847Z,71.42
2023-08-21T00:36:38.240Z,71.12
2023-08-21T00:39:10.528Z,71.39
2023-08-21T00:41:43.511Z,70.52
2023-08-21T00:44:15.957Z,69.29
2023-08-21T00:46:48.248Z,68.42
2023-08-21T00:49:21.981Z,68.17
2023-08-21T00:51:55.806Z,68.21
2023-08-21T00:54:28.458Z,68.24
2023-08-21T00:57:01.318Z,68.62
2023-08-21T00:59:33.954Z,68.40
2023-08-21T01:02:06.649Z,68.99
2023-08-21T01:04:39.000Z,70.57
2023-08-21T01:07:11.710Z,71.79
2023-08-21T01:09:52.479Z,71.07
2023-08-21T01:12:33.715Z,72.04
2023-08-21T01:15:08.764Z,71.64
2023-08-21T01:17:42.602Z,70.68
2023-08-21T01:20:17.436Z,70.46
2023-08-21T01:22:51.478Z,70.07
2023-08-21T01:25:25.072Z,69.92
2023-08-21T01:27:57.623Z,69.51
2023-08-21T01:30:33.668Z,69.65
2023-08-21T01:33:13.009Z,69.61
2023-08-21T01:35:45.558Z,70.15
2023-08-21T01:38:18.189Z,70.82
2023-08-21T01:40:52.041Z,71.56
2023-08-21T01:43:26.113Z,71.28
2023-08-21T01:45:57.568Z,71.35
2023-08-21T01:48:30.946Z,70.42
2023-08-21T01:51:06.044Z,70.12
2023-08-21T01:53:38.447Z,70.33
2023-08-21T01:56:10.910Z,69.96
2023-08-21T01:58:43.268Z,70.69
2023-08-21T02:01:15.744Z,71.62
2023-08-21T02:03:48.161Z,70.71
2023-08-21T02:06:20.489Z,69.68
2023-08-21T02:08:53.412Z,68.68
2023-08-21T02:11:25.703Z,67.34
2023-08-21T02:13:58.533Z,66.63
2023-08-21T02:16:30.776Z,67.40
2023-08-21T02:19:03.133Z,67.55
2023-08-21T02:21:37.553Z,66.56
2023-08-21T02:24:10.257Z,67.36
2023-08-21T02:26:44.151Z,68.54
2023-08-21T02:29:16.879Z,68.14
2023-08-21T02:31:49.085Z,69.39
2023-08-21T02:34:21.377Z,70.27
2023-08-21T02:36:53.489Z,70.15
2023-08-21T02:39:25.673Z,69.71
2023-08-21T02:41:58.373Z,70.22
2023-08-21T02:44:30.695Z,70.51
2023-08-21T02:47:03.259Z,70.24
2023-08-21T02:49:36.485Z,70.10
2023-08-21T02:52:09.109Z,69.41
2023-08-21T02:54:41.334Z,70.26
2023-08-21T02:57:14.640Z,70.61
2023-08-21T02:59:47.301Z,70.64
2023-08-21T03:02:22.072Z,70.61
2023-08-21T03:04:54.529Z,70.43
2023-08-21T03:07:26.657Z,71.00
2023-08-21T03:10:00.870Z,71.02
2023-08-21T03:12:33.236Z,70.81
2023-08-21T03:15:05.917Z,70.82
2023-08-21T03:17:39.291Z,70.88
2023-08-21T03:20:13.603Z,71.12
2023-08-21T03:22:46.555Z,71.07
2023-08-21T03:25:19.642Z,70.65
2023-08-21T03:27:51.998Z,70.70
2023-08-21T03:30:24.643Z,70.75
2023-08-21T03:32:56.954Z,70.72
2023-08-21T03:35:30.419Z,70.80
2023-08-21T03:38:02.913Z,70.37
2023-08-21T03:40:36.464Z,70.03
2023-08-21T03:43:08.595Z,70.09
2023-08-21T03:45:40.902Z,70.38
2023-08-21T03:48:14.375Z,70.77
2023-08-21T03:50:46.725Z,71.01
2023-08-21T03:53:19.354Z,71.28
2023-08-21T03:55:51.540Z,71.36
2023-08-21T03:58:23.812Z,71.37
2023-08-21T04:00:56.510Z,71.45
2023-08-21T04:03:30.174Z,71.41
2023-08-21T04:06:04.227Z,71.93
2023-08-21T04:08:36.390Z,71.95
2023-08-21T04:11:09.974Z,71.60
2023-08-21T04:13:42.327Z,71.64
2023-08-21T04:16:15.152Z,72.24
2023-08-21T04:18:47.941Z,72.50
2023-08-21T04:21:20.091Z,72.00
2023-08-21T04:23:52.396Z,71.94
2023-08-21T04:26:24.674Z,71.94
2023-08-21T04:28:57.425Z,72.30
2023-08-21T04:31:30.210Z,72.89
2023-08-21T04:34:03.184Z,73.22
2023-08-21T04:36:36.741Z,73.25
2023-08-21T04:39:10.104Z,73.38
2023-08-21T04:41:44.001Z,73.58
2023-08-21T04:44:16.226Z,73.50
2023-08-21T04:46:52.558Z,73.66
2023-08-21T04:49:25.443Z,73.82
2023-08-21T04:51:58.135Z,74.06
2023-08-21T04:54:30.274Z,74.45
2023-08-21T04:57:02.774Z,74.40
2023-08-21T04:59:35.736Z,74.62
2023-08-21T05:02:08.717Z,74.99
2023-08-21T05:04:41.429Z,75.45
2023-08-21T05:07:14.422Z,75.59
2023-08-21T05:09:46.579Z,76.16
2023-08-21T05:12:19.241Z,76.12
2023-08-21T05:14:51.857Z,76.41
2023-08-21T05:17:24.279Z,77.03
2023-08-21T05:19:57.173Z,77.07
2023-08-21T05:22:29.629Z,77.14
2023-08-21T05:25:02.333Z,77.03
2023-08-21T05:27:35.569Z,77.33
2023-08-21T05:30:11.710Z,77.63
2023-08-21T05:32:44.700Z,77.14
2023-08-21T05:35:17.101Z,77.44
2023-08-21T05:37:51.410Z,77.18
2023-08-21T05:40:24.820Z,77.34
2023-08-21T05:42:57.250Z,77.38
2023-08-21T05:45:29.863Z,76.47
2023-08-21T05:48:02.316Z,76.17
2023-08-21T05:50:34.644Z,74.83
2023-08-21T05:53:07.384Z,70.43
2023-08-21T05:55:40.275Z,68.16
2023-08-21T05:58:12.976Z,70.35
2023-08-21T06:00:45.669Z,69.67
2023-08-21T06:03:18.404Z,68.76
2023-08-21T06:06:06.153Z,69.03
2023-08-21T06:08:38.507Z,68.31
2023-08-21T06:11:11.162Z,67.90
2023-08-21T06:13:43.354Z,68.61
2023-08-21T06:16:17.477Z,68.62
2023-08-21T06:18:49.842Z,68.81
2023-08-21T06:21:22.107Z,69.71
2023-08-21T06:23:54.543Z,68.22
2023-08-21T06:26:26.713Z,65.10
2023-08-21T06:28:58.930Z,65.86
2023-08-21T06:31:31.460Z,66.25
2023-08-21T06:34:03.860Z,67.09
2023-08-21T06:36:36.467Z,67.78
2023-08-21T06:39:09.129Z,67.28
2023-08-21T06:41:41.585Z,65.70
2023-08-21T06:44:19.069Z,64.82
2023-08-21T06:46:51.369Z,66.00
2023-08-21T06:49:23.739Z,64.63
2023-08-21T06:51:56.058Z,65.05
2023-08-21T06:54:28.794Z,65.31
2023-08-21T06:57:00.890Z,63.54
2023-08-21T06:59:36.927Z,63.11
2023-08-21T07:02:09.474Z,62.82
2023-08-21T07:04:41.836Z,63.53
2023-08-21T07:07:14.518Z,63.30
2023-08-21T07:09:47.025Z,64.54
2023-08-21T07:12:19.287Z,64.61
2023-08-21T07:14:51.507Z,64.90
2023-08-21T07:17:23.696Z,63.44
2023-08-21T07:19:56.473Z,62.53
2023-08-21T07:22:30.253Z,62.39
2023-08-21T07:25:05.225Z,61.72
2023-08-21T07:27:37.669Z,61.44
2023-08-21T07:30:15.524Z,61.93
2023-08-21T07:32:47.966Z,60.20
2023-08-21T07:35:22.152Z,59.73
2023-08-21T07:37:54.287Z,60.37
2023-08-21T07:40:26.820Z,60.19
2023-08-21T07:42:59.198Z,61.27
2023-08-21T07:45:31.529Z,61.03
2023-08-21T07:48:14.356Z,61.14
2023-08-21T07:50:55.176Z,62.03
2023-08-21T07:53:27.978Z,62.52
2023-08-21T07:56:00.221Z,61.38
2023-08-21T07:58:32.585Z,62.27
2023-08-21T08:01:05.964Z,59.10
2023-08-21T08:03:38.827Z,59.78
2023-08-21T08:06:11.105Z,59.53
2023-08-21T08:08:43.519Z,58.51
2023-08-21T08:11:15.745Z,59.81
2023-08-21T08:13:48.195Z,61.52
2023-08-21T08:16:20.468Z,61.02
2023-08-21T08:18:52.769Z,60.95
2023-08-21T08:21:24.761Z,63.04
2023-08-21T08:23:56.929Z,64.46
2023-08-21T08:26:29.390Z,63.16
2023-08-21T08:29:01.641Z,62.62
2023-08-21T08:31:34.015Z,62.29
2023-08-21T08:34:06.406Z,62.04
2023-08-21T08:36:38.756Z,61.85
2023-08-21T08:39:10.871Z,60.70
2023-08-21T08:41:53.071Z,59.76
2023-08-21T08:44:28.811Z,60.32
2023-08-21T08:47:01.693Z,60.29
2023-08-21T08:49:34.330Z,58.82
2023-08-21T08:52:08.692Z,59.14
2023-08-21T08:54:41.614Z,58.36
2023-08-21T08:57:13.943Z,58.37
2023-08-21T08:59:46.321Z,57.31
2023-08-21T09:02:18.690Z,56.57
2023-08-21T09:04:51.259Z,57.17
2023-08-21T09:07:24.178Z,56.90
2023-08-21T09:09:56.457Z,56.59
2023-08-21T09:12:28.910Z,56.72
2023-08-21T09:15:02.842Z,56.95
2023-08-21T09:17:37.026Z,56.32
2023-08-21T09:20:11.963Z,56.11
2023-08-21T09:22:42.493Z,54.96
2023-08-21T09:25:15.704Z,56.32
2023-08-21T09:27:47.811Z,57.50
2023-08-21T09:30:20.146Z,55.70
2023-08-21T09:33:01.660Z,55.70
2023-08-21T09:35:36.110Z,54.77
2023-08-21T09:38:09.664Z,54.92
2023-08-21T09:40:44.872Z,55.84
2023-08-21T09:43:17.622Z,55.99
2023-08-21T09:45:53.631Z,54.98
2023-08-21T09:48:28.043Z,54.81
2023-08-21T09:51:00.918Z,55.85
2023-08-21T09:53:33.802Z,54.50
2023-08-21T09:56:07.734Z,53.95
2023-08-21T09:58:40.629Z,55.53
2023-08-21T10:01:15.220Z,53.99
2023-08-21T10:03:48.839Z,53.85
2023-08-21T10:06:23.299Z,54.86
2023-08-21T10:08:58.782Z,54.44
2023-08-21T10:11:32.086Z,53.57
2023-08-21T10:14:04.644Z,53.37
2023-08-21T10:16:37.296Z,54.28
2023-08-21T10:19:09.993Z,53.50
2023-08-21T10:21:42.310Z,52.30
2023-08-21T10:24:14.426Z,51.97
2023-08-21T10:26:47.679Z,53.07
2023-08-21T10:29:20.274Z,53.26
2023-08-21T10:32:03.886Z,52.74
2023-08-21T10:34:39.060Z,51.66
2023-08-21T10:37:14.006Z,51.70
2023-08-21T10:39:58.897Z,51.77
2023-08-21T10:42:44.428Z,52.59
2023-08-21T10:45:16.965Z,52.48
2023-08-21T10:47:51.704Z,53.47
2023-08-21T10:50:24.233Z,52.97
2023-08-21T10:52:57.133Z,50.99
2023-08-21T10:55:31.109Z,51.57
2023-08-21T10:58:04.477Z,51.05
2023-08-21T11:00:36.909Z,51.20
2023-08-21T11:03:09.384Z,51.16
2023-08-21T11:05:41.762Z,51.42
2023-08-21T11:08:15.278Z,51.84
2023-08-21T11:10:50.243Z,50.73
2023-08-21T11:13:25.412Z,49.88
2023-08-21T11:16:05.201Z,51.33
2023-08-21T11:18:39.926Z,50.11
2023-08-21T11:21:13.782Z,52.11
2023-08-21T11:23:46.158Z,52.57
2023-08-21T11:26:21.523Z,52.59
2023-08-21T11:28:57.835Z,52.40
2023-08-21T11:31:29.488Z,52.08
2023-08-21T11:34:10.962Z,51.58
2023-08-21T11:36:50.776Z,52.00
2023-08-21T11:39:23.330Z,53.18
2023-08-21T11:42:00.071Z,52.12
2023-08-21T11:44:33.011Z,53.57
2023-08-21T11:47:05.147Z,51.11
2023-08-21T11:49:42.844Z,51.75
2023-08-21T11:52:15.952Z,50.76
2023-08-21T11:54:52.505Z,51.16
2023-08-21T11:57:25.425Z,52.17
2023-08-21T11:59:58.511Z,53.57
2023-08-21T12:02:31.637Z,51.52
2023-08-21T12:05:08.309Z,51.39
2023-08-21T12:07:40.824Z,52.23
2023-08-21T12:10:13.965Z,52.84
2023-08-21T12:12:46.336Z,53.06
2023-08-21T12:15:19.109Z,53.49
2023-08-21T12:17:51.177Z,53.16
2023-08-21T12:20:23.634Z,51.91
2023-08-21T12:22:55.727Z,53.16
2023-08-21T12:25:28.259Z,52.21
2023-08-21T12:28:09.032Z,53.53
2023-08-21T12:30:42.505Z,55.20
2023-08-21T12:33:23.377Z,55.53
2023-08-21T12:35:56.868Z,56.20
2023-08-21T12:38:30.676Z,54.89
2023-08-21T12:41:03.579Z,54.80
2023-08-21T12:43:35.881Z,54.85
2023-08-21T12:46:09.182Z,54.88
2023-08-21T12:48:41.338Z,56.03
2023-08-21T12:51:13.576Z,56.31
2023-08-21T12:53:46.090Z,54.87
2023-08-21T12:56:19.061Z,56.18
2023-08-21T12:58:51.397Z,55.67
2023-08-21T13:01:23.980Z,55.92
2023-08-21T13:03:56.029Z,56.77
2023-08-21T13:06:29.094Z,55.98
2023-08-21T13:09:02.568Z,57.59
2023-08-21T13:11:37.842Z,57.01
2023-08-21T13:14:10.600Z,57.99
2023-08-21T13:16:43.126Z,57.88
2023-08-21T13:19:15.877Z,57.87
2023-08-21T13:21:48.173Z,58.00
2023-08-21T13:24:20.293Z,57.26
2023-08-21T13:26:52.901Z,57.31
2023-08-21T13:29:25.411Z,56.84
2023-08-21T13:31:57.671Z,56.99
2023-08-21T13:34:29.902Z,56.57
2023-08-21T13:37:02.320Z,57.06
2023-08-21T13:39:36.871Z,57.73
2023-08-21T13:42:10.175Z,57.70
2023-08-21T13:44:42.339Z,57.16
2023-08-21T13:47:14.626Z,57.82
2023-08-21T13:49:46.972Z,57.32
2023-08-21T13:52:19.371Z,57.01
2023-08-21T13:54:51.565Z,55.81
2023-08-21T13:57:23.613Z,56.70
2023-08-21T13:59:55.949Z,57.43
2023-08-21T14:02:28.323Z,57.49
2023-08-21T14:05:00.415Z,57.16
2023-08-21T14:07:33.106Z,56.37
2023-08-21T14:10:06.118Z,55.58
2023-08-21T14:12:41.708Z,55.59
2023-08-21T14:15:15.359Z,54.80
2023-08-21T14:17:47.429Z,55.00
2023-08-21T14:20:19.671Z,55.11
2023-08-21T14:22:51.905Z,54.90
2023-08-21T14:25:23.989Z,55.38
2023-08-21T14:27:56.327Z,56.62
2023-08-21T14:30:28.847Z,55.59
2023-08-21T14:33:01.046Z,57.16
2023-08-21T14:35:33.320Z,55.60
2023-08-21T14:38:07.521Z,55.69
2023-08-21T14:40:40.036Z,55.61
2023-08-21T14:43:12.428Z,55.53
2023-08-21T14:45:45.208Z,56.60
2023-08-21T14:48:19.487Z,56.55
2023-08-21T14:50:52.437Z,56.53
2023-08-21T14:53:27.407Z,53.94
2023-08-21T14:56:00.437Z,55.35
2023-08-21T14:58:32.545Z,55.56
2023-08-21T15:01:05.634Z,55.37
2023-08-21T15:03:38.105Z,56.00
2023-08-21T15:06:10.282Z,56.74
2023-08-21T15:08:43.536Z,55.90
2023-08-21T15:11:15.950Z,53.78
2023-08-21T15:13:48.564Z,53.46
2023-08-21T15:16:21.288Z,53.53
2023-08-21T15:18:54.025Z,53.67
2023-08-21T15:21:26.676Z,54.94
2023-08-21T15:23:58.742Z,55.03
2023-08-21T15:26:30.745Z,55.11
2023-08-21T15:29:04.226Z,54.24
2023-08-21T15:31:36.341Z,53.48
2023-08-21T15:34:09.312Z,54.55
2023-08-21T15:36:42.461Z,53.86
2023-08-21T15:39:14.871Z,52.38
2023-08-21T15:41:47.125Z,52.65
2023-08-21T15:44:19.551Z,51.62
2023-08-21T15:47:01.486Z,51.15
2023-08-21T15:49:44.196Z,50.90
2023-08-21T15:52:16.220Z,51.18
2023-08-21T15:54:51.663Z,51.61
2023-08-21T15:57:25.170Z,51.34
2023-08-21T15:59:57.302Z,50.80
2023-08-21T16:02:29.572Z,50.27
2023-08-21T16:05:01.923Z,50.27
2023-08-21T16:07:36.405Z,49.97
2023-08-21T16:10:07.571Z,49.43
2023-08-21T16:12:40.265Z,48.92
2023-08-21T16:15:13.081Z,48.97
2023-08-21T16:17:45.596Z,47.35
2023-08-21T16:20:18.213Z,47.53
2023-08-21T16:22:51.875Z,48.17
2023-08-21T16:25:24.336Z,48.29
2023-08-21T16:27:56.681Z,48.71
2023-08-21T16:30:28.659Z,49.00
2023-08-21T16:33:01.322Z,48.96
2023-08-21T16:35:33.545Z,48.93
2023-08-21T16:38:06.563Z,49.87
2023-08-21T16:40:39.031Z,49.29
2023-08-21T16:43:11.493Z,49.40
2023-08-21T16:45:44.237Z,49.94
2023-08-21T16:48:17.081Z,50.10
2023-08-21T16:50:49.338Z,50.25
2023-08-21T16:53:23.944Z,50.53
2023-08-21T16:55:56.978Z,50.52
2023-08-21T16:58:29.272Z,50.60
2023-08-21T17:01:01.493Z,51.02
2023-08-21T17:03:34.049Z,51.15
2023-08-21T17:06:06.746Z,51.28
2023-08-21T17:08:38.825Z,51.32
2023-08-21T17:11:11.041Z,51.62
2023-08-21T17:13:43.250Z,51.79
2023-08-21T17:16:15.509Z,52.08
2023-08-21T17:18:47.997Z,52.51
2023-08-21T17:21:20.269Z,52.41
2023-08-21T17:23:52.364Z,52.58
2023-08-21T17:26:24.637Z,53.02
2023-08-21T17:28:57.004Z,53.02
2023-08-21T17:31:29.233Z,53.27
2023-08-21T17:34:01.472Z,53.53
2023-08-21T17:36:34.034Z,53.86
2023-08-21T17:39:06.477Z,53.65
2023-08-21T17:41:39.422Z,53.74
2023-08-21T17:44:11.843Z,53.96
2023-08-21T17:46:44.393Z,53.99
2023-08-21T17:49:17.133Z,53.94
2023-08-21T17:51:49.299Z,54.05
2023-08-21T17:54:22.012Z,54.33
2023-08-21T17:56:54.522Z,54.51
2023-08-21T17:59:26.844Z,54.38
2023-08-21T18:02:00.113Z,54.21
2023-08-21T18:04:33.159Z,54.09
2023-08-21T18:07:06.291Z,53.69
2023-08-21T18:09:38.521Z,53.68
2023-08-21T18:12:11.047Z,53.46
2023-08-21T18:14:43.414Z,53.44
2023-08-21T18:17:16.593Z,52.87
2023-08-21T18:19:49.689Z,53.12
2023-08-21T18:22:21.871Z,52.51
2023-08-21T18:24:54.100Z,52.05
2023-08-21T18:27:26.776Z,51.58
2023-08-21T18:29:59.800Z,51.36
2023-08-21T18:32:31.977Z,51.36
2023-08-21T18:35:06.514Z,51.58
2023-08-21T18:37:39.017Z,51.04
2023-08-21T18:40:14.009Z,50.92
2023-08-21T18:42:46.998Z,51.33
2023-08-21T18:45:20.080Z,51.32
2023-08-21T18:47:52.691Z,51.22
2023-08-21T18:50:37.933Z,51.31
2023-08-21T18:53:11.753Z,51.09
2023-08-21T18:55:45.607Z,51.04
2023-08-21T18:58:18.483Z,51.14
2023-08-21T19:00:51.037Z,51.37
2023-08-21T19:03:23.220Z,51.39
2023-08-21T19:05:55.883Z,51.61
2023-08-21T19:08:28.977Z,52.16
2023-08-21T19:11:02.813Z,51.64
2023-08-21T19:13:36.065Z,51.45
2023-08-21T19:16:08.662Z,51.42
2023-08-21T19:18:43.663Z,51.98
2023-08-21T19:21:16.513Z,53.53
2023-08-21T19:23:48.840Z,54.80
2023-08-21T19:26:21.326Z,55.87
2023-08-21T19:28:53.636Z,57.20
2023-08-21T19:31:26.564Z,57.69
2023-08-21T19:33:59.257Z,58.33
2023-08-21T19:36:31.672Z,58.61
2023-08-21T19:39:04.303Z,59.13
2023-08-21T19:41:36.580Z,59.29
2023-08-21T19:44:09.116Z,59.66
2023-08-21T19:46:41.603Z,59.88
2023-08-21T19:49:15.737Z,60.05
2023-08-21T19:51:48.668Z,59.37
2023-08-21T19:54:20.729Z,60.05
2023-08-21T19:56:54.494Z,59.74
2023-08-21T19:59:27.649Z,58.26
2023-08-21T20:01:59.949Z,57.23
2023-08-21T20:04:32.149Z,58.73
2023-08-21T20:07:07.383Z,59.88
2023-08-21T20:09:40.652Z,60.30
2023-08-21T20:12:13.185Z,60.17
2023-08-21T20:14:47.633Z,59.82
2023-08-21T20:17:21.479Z,60.16
2023-08-21T20:19:54.192Z,60.32
2023-08-21T20:22:26.956Z,60.65
2023-08-21T20:24:59.171Z,61.41
2023-08-21T20:27:31.416Z,61.85
2023-08-21T20:30:04.335Z,62.33
2023-08-21T20:32:36.701Z,62.47
2023-08-21T20:35:10.527Z,62.53
2023-08-21T20:37:43.636Z,62.33
2023-08-21T20:40:16.629Z,62.43
2023-08-21T20:42:49.814Z,62.49
2023-08-21T20:45:22.137Z,62.78
2023-08-21T20:47:54.629Z,63.04
2023-08-21T20:50:27.222Z,63.06
2023-08-21T20:52:59.819Z,61.27
2023-08-21T20:55:32.114Z,61.45
2023-08-21T20:58:04.768Z,61.01
2023-08-21T21:00:36.787Z,61.91
2023-08-21T21:03:09.538Z,62.23
2023-08-21T21:05:42.561Z,62.04
2023-08-21T21:08:14.873Z,62.59
2023-08-21T21:10:47.099Z,62.36
2023-08-21T21:13:19.916Z,62.08
2023-08-21T21:15:51.904Z,62.28
2023-08-21T21:18:24.343Z,62.48
2023-08-21T21:20:58.693Z,62.48
2023-08-21T21:23:31.943Z,62.14
2023-08-21T21:26:04.466Z,63.17
2023-08-21T21:28:36.791Z,62.88
2023-08-21T21:31:09.045Z,63.70
2023-08-21T21:33:41.600Z,63.86
2023-08-21T21:36:14.255Z,63.55
2023-08-21T21:38:46.904Z,63.38
2023-08-21T21:41:19.784Z,63.57
2023-08-21T21:43:54.137Z,63.68
2023-08-21T21:46:28.330Z,63.78
2023-08-21T21:49:01.837Z,63.82
2023-08-21T21:51:34.311Z,63.88
2023-08-21T21:54:07.145Z,64.33
2023-08-21T21:56:39.614Z,64.59
2023-08-21T21:59:12.012Z,64.11
2023-08-21T22:01:44.294Z,64.06
2023-08-21T22:04:16.637Z,64.50
2023-08-21T22:06:49.097Z,63.91
2023-08-21T22:09:21.305Z,64.33
2023-08-21T22:11:53.954Z,64.30
2023-08-21T22:14:26.321Z,64.06
2023-08-21T22:16:58.485Z,63.69
2023-08-21T22:19:30.850Z,63.93
2023-08-21T22:22:04.065Z,64.00
2023-08-21T22:24:36.990Z,64.28
2023-08-21T22:27:09.148Z,64.53
2023-08-21T22:29:41.491Z,64.54
2023-08-21T22:32:14.218Z,64.63
2023-08-21T22:34:46.567Z,64.95
2023-08-21T22:37:18.748Z,64.56
2023-08-21T22:39:51.000Z,64.73
2023-08-21T22:42:23.112Z,64.73
2023-08-21T22:44:55.603Z,65.23
2023-08-21T22:47:28.545Z,65.27
2023-08-21T22:50:01.352Z,65.24
2023-08-21T22:52:33.869Z,65.45
2023-08-21T22:55:07.577Z,65.32
2023-08-21T22:57:43.618Z,65.57
2023-08-21T23:00:18.927Z,65.99
2023-08-21T23:02:51.037Z,65.93
2023-08-21T23:05:23.848Z,66.11
2023-08-21T23:07:56.152Z,66.05
2023-08-21T23:10:28.258Z,66.42
2023-08-21T23:13:00.504Z,66.56
2023-08-21T23:15:33.256Z,66.31
2023-08-21T23:18:05.701Z,66.41
2023-08-21T23:20:38.041Z,66.60
2023-08-21T23:23:10.910Z,66.44
2023-08-21T23:25:43.479Z,66.47
2023-08-21T23:28:15.670Z,66.97
2023-08-21T23:30:49.294Z,67.40
2023-08-21T23:33:21.883Z,67.29
2023-08-21T23:35:54.432Z,67.53
2023-08-21T23:38:27.925Z,67.39
2023-08-21T23:41:00.088Z,67.34
2023-08-21T23:43:32.224Z,67.38
2023-08-21T23:46:04.481Z,67.54
2023-08-21T23:48:36.791Z,67.54
2023-08-21T23:51:09.122Z,67.37
2023-08-21T23:53:41.381Z,67.29
2023-08-21T23:56:13.907Z,67.40
2023-08-21T23:58:46.072Z,67.49
